sensor_id;sensor_type;location;lat;lon;timestamp;P1;durP1;ratioP1;P2;durP2;ratioP2
43700;SDS011;58809;47.984;7.964;2023-09-12T00:02:04;16.08;;;14.45;;
43700;SDS011;58809;47.984;7.964;2023-09-12T00:05:06;15.10;;;13.50;;
43700;SDS011;58809;47.984;7.964;2023-09-12T00:08:08;17.35;;;13.77;;
43700;SDS011;58809;47.984;7.964;2023-09-12T00:11:09;16.50;;;13.32;;
43700;SDS011;58809;47.984;7.964;2023-09-12T00:14:16;14.40;;;12.90;;
43700;SDS011;58809;47.984;7.964;2023-09-12T00:17:19;14.93;;;13.38;;
43700;SDS011;58809;47.984;7.964;2023-09-12T00:20:20;15.18;;;13.68;;
43700;SDS011;58809;47.984;7.964;2023-09-12T00:23:22;14.63;;;12.95;;
43700;SDS011;58809;47.984;7.964;2023-09-12T00:26:25;15.90;;;12.77;;
43700;SDS011;58809;47.984;7.964;2023-09-12T00:29:26;14.23;;;12.73;;
43700;SDS011;58809;47.984;7.964;2023-09-12T00:32:28;15.98;;;13.45;;
43700;SDS011;58809;47.984;7.964;2023-09-12T00:35:29;20.00;;;13.52;;
43700;SDS011;58809;47.984;7.964;2023-09-12T00:38:31;16.88;;;13.90;;
43700;SDS011;58809;47.984;7.964;2023-09-12T00:41:32;17.40;;;13.55;;
43700;SDS011;58809;47.984;7.964;2023-09-12T00:44:34;17.00;;;13.38;;
43700;SDS011;58809;47.984;7.964;2023-09-12T00:47:36;16.65;;;13.52;;
43700;SDS011;58809;47.984;7.964;2023-09-12T00:50:38;15.95;;;13.93;;
43700;SDS011;58809;47.984;7.964;2023-09-12T00:53:41;14.73;;;13.18;;
43700;SDS011;58809;47.984;7.964;2023-09-12T00:56:43;16.90;;;13.73;;
43700;SDS011;58809;47.984;7.964;2023-09-12T00:59:45;15.73;;;13.98;;
43700;SDS011;58809;47.984;7.964;2023-09-12T01:02:48;14.85;;;13.43;;
43700;SDS011;58809;47.984;7.964;2023-09-12T01:05:51;17.13;;;14.68;;
43700;SDS011;58809;47.984;7.964;2023-09-12T01:08:53;17.60;;;14.98;;
43700;SDS011;58809;47.984;7.964;2023-09-12T01:11:56;15.18;;;13.07;;
43700;SDS011;58809;47.984;7.964;2023-09-12T01:14:58;18.08;;;14.07;;
43700;SDS011;58809;47.984;7.964;2023-09-12T01:17:59;16.60;;;14.55;;
43700;SDS011;58809;47.984;7.964;2023-09-12T01:27:50;15.88;;;14.25;;
43700;SDS011;58809;47.984;7.964;2023-09-12T01:30:53;16.23;;;14.52;;
43700;SDS011;58809;47.984;7.964;2023-09-12T01:33:56;15.48;;;13.68;;
43700;SDS011;58809;47.984;7.964;2023-09-12T01:36:59;16.55;;;13.82;;
43700;SDS011;58809;47.984;7.964;2023-09-12T01:40:01;16.00;;;14.32;;
43700;SDS011;58809;47.984;7.964;2023-09-12T01:43:05;16.42;;;13.57;;
43700;SDS011;58809;47.984;7.964;2023-09-12T01:46:08;14.57;;;13.07;;
43700;SDS011;58809;47.984;7.964;2023-09-12T01:49:10;16.80;;;13.23;;
43700;SDS011;58809;47.984;7.964;2023-09-12T01:52:13;15.05;;;13.55;;
43700;SDS011;58809;47.984;7.964;2023-09-12T01:55:16;16.45;;;13.60;;
43700;SDS011;58809;47.984;7.964;2023-09-12T01:58:19;14.25;;;12.80;;
43700;SDS011;58809;47.984;7.964;2023-09-12T02:01:21;15.25;;;13.65;;
43700;SDS011;58809;47.984;7.964;2023-09-12T02:04:23;17.08;;;14.85;;
43700;SDS011;58809;47.984;7.964;2023-09-12T02:07:24;16.83;;;15.23;;
43700;SDS011;58809;47.984;7.964;2023-09-12T02:10:28;17.45;;;15.52;;
43700;SDS011;58809;47.984;7.964;2023-09-12T02:13:29;16.88;;;14.50;;
43700;SDS011;58809;47.984;7.964;2023-09-12T02:16:31;16.58;;;14.88;;
43700;SDS011;58809;47.984;7.964;2023-09-12T02:19:33;17.33;;;15.50;;
43700;SDS011;58809;47.984;7.964;2023-09-12T02:22:35;16.75;;;15.05;;
43700;SDS011;58809;47.984;7.964;2023-09-12T02:25:37;15.57;;;14.07;;
43700;SDS011;58809;47.984;7.964;2023-09-12T02:28:38;15.82;;;14.18;;
43700;SDS011;58809;47.984;7.964;2023-09-12T02:31:41;21.08;;;15.15;;
43700;SDS011;58809;47.984;7.964;2023-09-12T02:34:42;16.42;;;14.10;;
43700;SDS011;58809;47.984;7.964;2023-09-12T02:37:44;15.65;;;14.00;;
43700;SDS011;58809;47.984;7.964;2023-09-12T02:40:46;21.65;;;15.38;;
43700;SDS011;58809;47.984;7.964;2023-09-12T02:43:47;19.92;;;14.55;;
43700;SDS011;58809;47.984;7.964;2023-09-12T02:46:50;17.13;;;15.38;;
43700;SDS011;58809;47.984;7.964;2023-09-12T02:49:52;15.75;;;14.13;;
43700;SDS011;58809;47.984;7.964;2023-09-12T02:52:54;17.67;;;14.93;;
43700;SDS011;58809;47.984;7.964;2023-09-12T02:55:55;17.05;;;15.32;;
43700;SDS011;58809;47.984;7.964;2023-09-12T02:58:57;17.10;;;14.93;;
43700;SDS011;58809;47.984;7.964;2023-09-12T03:01:59;16.33;;;14.48;;
43700;SDS011;58809;47.984;7.964;2023-09-12T03:05:00;17.65;;;15.90;;
43700;SDS011;58809;47.984;7.964;2023-09-12T03:08:07;18.48;;;16.17;;
43700;SDS011;58809;47.984;7.964;2023-09-12T03:11:09;16.52;;;14.65;;
43700;SDS011;58809;47.984;7.964;2023-09-12T03:14:11;16.45;;;14.73;;
43700;SDS011;58809;47.984;7.964;2023-09-12T03:17:13;19.23;;;17.23;;
43700;SDS011;58809;47.984;7.964;2023-09-12T03:20:15;18.08;;;16.27;;
43700;SDS011;58809;47.984;7.964;2023-09-12T03:23:16;17.30;;;15.50;;
43700;SDS011;58809;47.984;7.964;2023-09-12T03:26:18;19.35;;;17.33;;
43700;SDS011;58809;47.984;7.964;2023-09-12T03:29:20;22.10;;;17.67;;
43700;SDS011;58809;47.984;7.964;2023-09-12T03:32:22;19.40;;;17.27;;
43700;SDS011;58809;47.984;7.964;2023-09-12T03:35:24;18.88;;;16.38;;
43700;SDS011;58809;47.984;7.964;2023-09-12T03:38:25;18.35;;;16.45;;
43700;SDS011;58809;47.984;7.964;2023-09-12T03:41:27;18.35;;;16.15;;
43700;SDS011;58809;47.984;7.964;2023-09-12T03:44:31;19.45;;;17.35;;
43700;SDS011;58809;47.984;7.964;2023-09-12T03:47:32;18.52;;;16.73;;
43700;SDS011;58809;47.984;7.964;2023-09-12T03:50:34;19.10;;;17.08;;
43700;SDS011;58809;47.984;7.964;2023-09-12T03:53:36;20.05;;;18.05;;
43700;SDS011;58809;47.984;7.964;2023-09-12T03:56:38;21.13;;;17.98;;
43700;SDS011;58809;47.984;7.964;2023-09-12T03:59:40;19.73;;;17.63;;
43700;SDS011;58809;47.984;7.964;2023-09-12T04:02:42;19.92;;;17.83;;
43700;SDS011;58809;47.984;7.964;2023-09-12T04:05:45;20.05;;;17.90;;
43700;SDS011;58809;47.984;7.964;2023-09-12T04:08:47;20.00;;;17.65;;
43700;SDS011;58809;47.984;7.964;2023-09-12T04:11:49;18.02;;;16.13;;
43700;SDS011;58809;47.984;7.964;2023-09-12T04:14:54;17.98;;;15.63;;
43700;SDS011;58809;47.984;7.964;2023-09-12T04:17:56;18.98;;;17.05;;
43700;SDS011;58809;47.984;7.964;2023-09-12T04:20:58;19.98;;;17.88;;
43700;SDS011;58809;47.984;7.964;2023-09-12T04:23:59;19.17;;;17.17;;
43700;SDS011;58809;47.984;7.964;2023-09-12T04:27:01;21.52;;;19.00;;
43700;SDS011;58809;47.984;7.964;2023-09-12T04:30:03;18.55;;;16.75;;
43700;SDS011;58809;47.984;7.964;2023-09-12T04:33:06;20.38;;;18.38;;
43700;SDS011;58809;47.984;7.964;2023-09-12T04:36:08;20.30;;;16.98;;
43700;SDS011;58809;47.984;7.964;2023-09-12T04:39:09;20.30;;;18.20;;
43700;SDS011;58809;47.984;7.964;2023-09-12T04:42:11;20.67;;;18.35;;
43700;SDS011;58809;47.984;7.964;2023-09-12T04:45:13;20.52;;;18.40;;
43700;SDS011;58809;47.984;7.964;2023-09-12T04:48:15;19.65;;;17.63;;
43700;SDS011;58809;47.984;7.964;2023-09-12T04:51:17;21.10;;;17.90;;
43700;SDS011;58809;47.984;7.964;2023-09-12T04:54:19;21.65;;;18.33;;
43700;SDS011;58809;47.984;7.964;2023-09-12T04:57:21;19.65;;;17.05;;
43700;SDS011;58809;47.984;7.964;2023-09-12T05:00:23;21.52;;;19.33;;
43700;SDS011;58809;47.984;7.964;2023-09-12T05:03:25;19.58;;;17.48;;
43700;SDS011;58809;47.984;7.964;2023-09-12T05:06:28;20.05;;;18.00;;
43700;SDS011;58809;47.984;7.964;2023-09-12T05:09:29;20.83;;;18.45;;
43700;SDS011;58809;47.984;7.964;2023-09-12T05:12:31;19.77;;;17.70;;
43700;SDS011;58809;47.984;7.964;2023-09-12T05:15:33;20.15;;;17.23;;
43700;SDS011;58809;47.984;7.964;2023-09-12T05:18:35;20.52;;;17.38;;
43700;SDS011;58809;47.984;7.964;2023-09-12T05:21:37;18.95;;;16.85;;
43700;SDS011;58809;47.984;7.964;2023-09-12T05:24:39;19.25;;;17.23;;
43700;SDS011;58809;47.984;7.964;2023-09-12T05:27:41;18.70;;;16.80;;
43700;SDS011;58809;47.984;7.964;2023-09-12T05:30:43;18.20;;;16.35;;
43700;SDS011;58809;47.984;7.964;2023-09-12T05:33:44;22.42;;;17.27;;
43700;SDS011;58809;47.984;7.964;2023-09-12T05:36:46;19.75;;;17.75;;
43700;SDS011;58809;47.984;7.964;2023-09-12T05:39:48;18.17;;;16.35;;
43700;SDS011;58809;47.984;7.964;2023-09-12T05:42:50;19.83;;;17.75;;
43700;SDS011;58809;47.984;7.964;2023-09-12T05:45:52;18.05;;;16.17;;
43700;SDS011;58809;47.984;7.964;2023-09-12T05:48:54;18.88;;;16.88;;
43700;SDS011;58809;47.984;7.964;2023-09-12T05:51:55;17.63;;;15.93;;
43700;SDS011;58809;47.984;7.964;2023-09-12T05:54:57;17.73;;;15.93;;
43700;SDS011;58809;47.984;7.964;2023-09-12T05:57:59;16.83;;;15.13;;
43700;SDS011;58809;47.984;7.964;2023-09-12T06:01:01;17.27;;;15.63;;
43700;SDS011;58809;47.984;7.964;2023-09-12T06:04:04;16.38;;;14.75;;
43700;SDS011;58809;47.984;7.964;2023-09-12T06:07:07;18.98;;;16.42;;
43700;SDS011;58809;47.984;7.964;2023-09-12T06:10:08;17.45;;;15.85;;
43700;SDS011;58809;47.984;7.964;2023-09-12T06:13:10;22.23;;;15.80;;
43700;SDS011;58809;47.984;7.964;2023-09-12T06:16:13;17.80;;;15.30;;
43700;SDS011;58809;47.984;7.964;2023-09-12T06:19:15;18.02;;;15.85;;
43700;SDS011;58809;47.984;7.964;2023-09-12T06:22:17;17.90;;;15.27;;
43700;SDS011;58809;47.984;7.964;2023-09-12T06:25:19;15.63;;;13.95;;
43700;SDS011;58809;47.984;7.964;2023-09-12T06:28:24;17.00;;;15.38;;
43700;SDS011;58809;47.984;7.964;2023-09-12T06:31:30;16.75;;;15.05;;
43700;SDS011;58809;47.984;7.964;2023-09-12T06:34:31;16.88;;;15.15;;
43700;SDS011;58809;47.984;7.964;2023-09-12T06:37:33;16.23;;;14.60;;
43700;SDS011;58809;47.984;7.964;2023-09-12T06:40:35;15.55;;;13.93;;
43700;SDS011;58809;47.984;7.964;2023-09-12T06:43:36;16.05;;;14.55;;
43700;SDS011;58809;47.984;7.964;2023-09-12T06:46:38;19.52;;;15.23;;
43700;SDS011;58809;47.984;7.964;2023-09-12T06:49:39;14.10;;;12.50;;
43700;SDS011;58809;47.984;7.964;2023-09-12T06:52:41;16.17;;;14.57;;
43700;SDS011;58809;47.984;7.964;2023-09-12T06:55:43;16.30;;;14.70;;
43700;SDS011;58809;47.984;7.964;2023-09-12T06:58:44;15.20;;;13.80;;
43700;SDS011;58809;47.984;7.964;2023-09-12T07:01:46;14.23;;;12.88;;
43700;SDS011;58809;47.984;7.964;2023-09-12T07:04:47;15.20;;;13.60;;
43700;SDS011;58809;47.984;7.964;2023-09-12T07:07:49;16.10;;;13.85;;
43700;SDS011;58809;47.984;7.964;2023-09-12T07:10:51;16.55;;;14.80;;
43700;SDS011;58809;47.984;7.964;2023-09-12T07:13:52;15.07;;;13.57;;
43700;SDS011;58809;47.984;7.964;2023-09-12T07:16:54;15.02;;;13.65;;
43700;SDS011;58809;47.984;7.964;2023-09-12T07:19:55;15.25;;;13.70;;
43700;SDS011;58809;47.984;7.964;2023-09-12T07:23:00;14.98;;;13.10;;
43700;SDS011;58809;47.984;7.964;2023-09-12T07:26:01;14.68;;;13.30;;
43700;SDS011;58809;47.984;7.964;2023-09-12T07:29:04;16.88;;;13.90;;
43700;SDS011;58809;47.984;7.964;2023-09-12T07:32:06;13.93;;;12.60;;
43700;SDS011;58809;47.984;7.964;2023-09-12T07:35:08;13.63;;;12.43;;
43700;SDS011;58809;47.984;7.964;2023-09-12T07:38:10;14.55;;;13.15;;
43700;SDS011;58809;47.984;7.964;2023-09-12T07:41:11;14.70;;;13.30;;
43700;SDS011;58809;47.984;7.964;2023-09-12T07:44:13;14.68;;;13.27;;
43700;SDS011;58809;47.984;7.964;2023-09-12T07:47:17;15.43;;;13.85;;
43700;SDS011;58809;47.984;7.964;2023-09-12T07:50:18;15.07;;;13.57;;
43700;SDS011;58809;47.984;7.964;2023-09-12T07:53:20;14.68;;;13.20;;
43700;SDS011;58809;47.984;7.964;2023-09-12T07:56:25;14.60;;;13.25;;
43700;SDS011;58809;47.984;7.964;2023-09-12T07:59:26;15.70;;;12.73;;
43700;SDS011;58809;47.984;7.964;2023-09-12T08:02:28;14.85;;;13.35;;
43700;SDS011;58809;47.984;7.964;2023-09-12T08:05:30;15.20;;;13.80;;
43700;SDS011;58809;47.984;7.964;2023-09-12T08:08:31;16.10;;;14.43;;
43700;SDS011;58809;47.984;7.964;2023-09-12T08:11:33;15.05;;;13.55;;
43700;SDS011;58809;47.984;7.964;2023-09-12T08:14:36;15.00;;;13.40;;
43700;SDS011;58809;47.984;7.964;2023-09-12T08:17:38;15.27;;;13.82;;
43700;SDS011;58809;47.984;7.964;2023-09-12T08:20:41;14.82;;;13.25;;
43700;SDS011;58809;47.984;7.964;2023-09-12T08:23:42;14.98;;;13.52;;
43700;SDS011;58809;47.984;7.964;2023-09-12T08:26:44;15.95;;;14.35;;
43700;SDS011;58809;47.984;7.964;2023-09-12T08:29:46;14.35;;;13.02;;
43700;SDS011;58809;47.984;7.964;2023-09-12T08:32:49;14.35;;;12.95;;
43700;SDS011;58809;47.984;7.964;2023-09-12T08:35:52;14.60;;;13.17;;
43700;SDS011;58809;47.984;7.964;2023-09-12T08:38:54;15.45;;;13.75;;
43700;SDS011;58809;47.984;7.964;2023-09-12T08:41:55;14.98;;;13.48;;
43700;SDS011;58809;47.984;7.964;2023-09-12T08:44:57;14.30;;;12.93;;
43700;SDS011;58809;47.984;7.964;2023-09-12T08:47:59;14.32;;;12.50;;
43700;SDS011;58809;47.984;7.964;2023-09-12T08:51:02;13.32;;;12.10;;
43700;SDS011;58809;47.984;7.964;2023-09-12T08:54:06;14.05;;;12.63;;
43700;SDS011;58809;47.984;7.964;2023-09-12T08:57:08;15.37;;;12.67;;
43700;SDS011;58809;47.984;7.964;2023-09-12T09:00:13;14.02;;;12.63;;
43700;SDS011;58809;47.984;7.964;2023-09-12T09:03:15;15.05;;;13.23;;
43700;SDS011;58809;47.984;7.964;2023-09-12T09:06:18;13.40;;;12.10;;
43700;SDS011;58809;47.984;7.964;2023-09-12T09:09:23;12.13;;;10.93;;
43700;SDS011;58809;47.984;7.964;2023-09-12T09:12:29;12.30;;;10.98;;
43700;SDS011;58809;47.984;7.964;2023-09-12T09:15:31;13.07;;;10.18;;
43700;SDS011;58809;47.984;7.964;2023-09-12T09:18:49;10.30;;;9.27;;
43700;SDS011;58809;47.984;7.964;2023-09-12T09:21:50;10.80;;;9.80;;
43700;SDS011;58809;47.984;7.964;2023-09-12T09:25:02;11.40;;;10.18;;
43700;SDS011;58809;47.984;7.964;2023-09-12T09:28:18;12.57;;;10.10;;
43700;SDS011;58809;47.984;7.964;2023-09-12T09:31:21;10.75;;;9.65;;
43700;SDS011;58809;47.984;7.964;2023-09-12T09:34:23;10.50;;;9.40;;
43700;SDS011;58809;47.984;7.964;2023-09-12T09:37:25;9.88;;;8.88;;
43700;SDS011;58809;47.984;7.964;2023-09-12T09:40:27;10.30;;;9.25;;
43700;SDS011;58809;47.984;7.964;2023-09-12T09:43:29;9.88;;;8.63;;
43700;SDS011;58809;47.984;7.964;2023-09-12T09:46:33;12.07;;;8.85;;
43700;SDS011;58809;47.984;7.964;2023-09-12T09:49:34;10.07;;;8.55;;
43700;SDS011;58809;47.984;7.964;2023-09-12T09:52:36;10.25;;;8.00;;
43700;SDS011;58809;47.984;7.964;2023-09-12T09:55:38;10.80;;;9.05;;
43700;SDS011;58809;47.984;7.964;2023-09-12T10:01:57;11.75;;;8.70;;
43700;SDS011;58809;47.984;7.964;2023-09-12T10:05:01;11.75;;;8.43;;
43700;SDS011;58809;47.984;7.964;2023-09-12T10:08:06;9.52;;;8.48;;
43700;SDS011;58809;47.984;7.964;2023-09-12T10:11:12;8.88;;;8.07;;
43700;SDS011;58809;47.984;7.964;2023-09-12T10:14:18;9.40;;;8.50;;
43700;SDS011;58809;47.984;7.964;2023-09-12T10:17:22;9.30;;;8.32;;
43700;SDS011;58809;47.984;7.964;2023-09-12T10:20:30;10.77;;;7.55;;
43700;SDS011;58809;47.984;7.964;2023-09-12T10:23:44;10.07;;;8.18;;
43700;SDS011;58809;47.984;7.964;2023-09-12T10:26:48;8.93;;;8.13;;
43700;SDS011;58809;47.984;7.964;2023-09-12T10:29:51;9.43;;;8.10;;
43700;SDS011;58809;47.984;7.964;2023-09-12T10:32:54;9.05;;;7.88;;
43700;SDS011;58809;47.984;7.964;2023-09-12T10:39:00;9.15;;;8.02;;
43700;SDS011;58809;47.984;7.964;2023-09-12T10:42:05;14.13;;;8.10;;
43700;SDS011;58809;47.984;7.964;2023-09-12T10:45:08;9.82;;;7.85;;
43700;SDS011;58809;47.984;7.964;2023-09-12T10:48:10;8.73;;;7.82;;
43700;SDS011;58809;47.984;7.964;2023-09-12T10:51:12;8.02;;;7.22;;
43700;SDS011;58809;47.984;7.964;2023-09-12T10:54:24;9.82;;;8.23;;
43700;SDS011;58809;47.984;7.964;2023-09-12T10:57:27;8.60;;;7.70;;
43700;SDS011;58809;47.984;7.964;2023-09-12T11:00:29;8.70;;;7.65;;
43700;SDS011;58809;47.984;7.964;2023-09-12T11:06:36;7.82;;;7.05;;
43700;SDS011;58809;47.984;7.964;2023-09-12T11:09:37;8.10;;;7.30;;
43700;SDS011;58809;47.984;7.964;2023-09-12T11:12:40;20.15;;;8.73;;
43700;SDS011;58809;47.984;7.964;2023-09-12T11:19:22;11.57;;;8.03;;
43700;SDS011;58809;47.984;7.964;2023-09-12T11:22:29;8.40;;;7.18;;
43700;SDS011;58809;47.984;7.964;2023-09-12T11:25:36;7.97;;;7.28;;
43700;SDS011;58809;47.984;7.964;2023-09-12T11:28:38;8.82;;;7.93;;
43700;SDS011;58809;47.984;7.964;2023-09-12T11:31:40;8.27;;;7.43;;
43700;SDS011;58809;47.984;7.964;2023-09-12T11:38:04;9.13;;;7.45;;
43700;SDS011;58809;47.984;7.964;2023-09-12T11:41:05;9.35;;;7.10;;
43700;SDS011;58809;47.984;7.964;2023-09-12T11:44:07;8.07;;;7.28;;
43700;SDS011;58809;47.984;7.964;2023-09-12T11:47:09;8.95;;;7.40;;
43700;SDS011;58809;47.984;7.964;2023-09-12T11:53:29;11.32;;;7.97;;
43700;SDS011;58809;47.984;7.964;2023-09-12T11:56:34;8.43;;;7.05;;
43700;SDS011;58809;47.984;7.964;2023-09-12T11:59:39;8.57;;;7.50;;
43700;SDS011;58809;47.984;7.964;2023-09-12T12:02:43;10.48;;;8.73;;
43700;SDS011;58809;47.984;7.964;2023-09-12T12:05:45;10.05;;;8.57;;
43700;SDS011;58809;47.984;7.964;2023-09-12T12:11:49;9.38;;;7.50;;
43700;SDS011;58809;47.984;7.964;2023-09-12T12:14:51;7.38;;;6.72;;
43700;SDS011;58809;47.984;7.964;2023-09-12T12:17:54;7.97;;;7.22;;
43700;SDS011;58809;47.984;7.964;2023-09-12T12:20:56;7.18;;;6.57;;
43700;SDS011;58809;47.984;7.964;2023-09-12T12:23:59;7.95;;;7.15;;
43700;SDS011;58809;47.984;7.964;2023-09-12T12:27:04;7.95;;;7.15;;
43700;SDS011;58809;47.984;7.964;2023-09-12T12:30:11;9.75;;;8.73;;
43700;SDS011;58809;47.984;7.964;2023-09-12T12:33:14;8.30;;;7.45;;
43700;SDS011;58809;47.984;7.964;2023-09-12T12:36:40;7.60;;;6.97;;
43700;SDS011;58809;47.984;7.964;2023-09-12T12:39:57;9.80;;;8.05;;
43700;SDS011;58809;47.984;7.964;2023-09-12T12:42:59;8.18;;;7.40;;
43700;SDS011;58809;47.984;7.964;2023-09-12T12:46:02;7.75;;;6.95;;
43700;SDS011;58809;47.984;7.964;2023-09-12T12:49:04;8.25;;;7.55;;
43700;SDS011;58809;47.984;7.964;2023-09-12T12:52:09;8.27;;;7.57;;
43700;SDS011;58809;47.984;7.964;2023-09-12T12:55:11;8.73;;;7.82;;
43700;SDS011;58809;47.984;7.964;2023-09-12T12:58:14;8.05;;;7.25;;
43700;SDS011;58809;47.984;7.964;2023-09-12T13:01:16;8.10;;;7.40;;
43700;SDS011;58809;47.984;7.964;2023-09-12T13:04:18;7.97;;;7.22;;
43700;SDS011;58809;47.984;7.964;2023-09-12T13:07:20;9.10;;;8.40;;
43700;SDS011;58809;47.984;7.964;2023-09-12T13:10:22;8.20;;;7.50;;
43700;SDS011;58809;47.984;7.964;2023-09-12T13:13:24;8.25;;;7.45;;
43700;SDS011;58809;47.984;7.964;2023-09-12T13:16:26;9.10;;;8.35;;
43700;SDS011;58809;47.984;7.964;2023-09-12T13:19:28;9.48;;;7.38;;
43700;SDS011;58809;47.984;7.964;2023-09-12T13:22:29;8.65;;;7.53;;
43700;SDS011;58809;47.984;7.964;2023-09-12T13:25:31;8.20;;;7.38;;
43700;SDS011;58809;47.984;7.964;2023-09-12T13:28:33;8.95;;;7.60;;
43700;SDS011;58809;47.984;7.964;2023-09-12T13:31:34;8.32;;;7.60;;
43700;SDS011;58809;47.984;7.964;2023-09-12T13:34:36;8.82;;;7.93;;
43700;SDS011;58809;47.984;7.964;2023-09-12T13:37:38;8.52;;;7.68;;
43700;SDS011;58809;47.984;7.964;2023-09-12T13:40:39;8.57;;;7.72;;
43700;SDS011;58809;47.984;7.964;2023-09-12T13:43:41;8.50;;;7.68;;
43700;SDS011;58809;47.984;7.964;2023-09-12T13:46:43;8.00;;;7.30;;
43700;SDS011;58809;47.984;7.964;2023-09-12T13:49:49;7.53;;;6.93;;
43700;SDS011;58809;47.984;7.964;2023-09-12T13:52:55;7.80;;;7.10;;
43700;SDS011;58809;47.984;7.964;2023-09-12T13:55:58;8.65;;;7.53;;
43700;SDS011;58809;47.984;7.964;2023-09-12T13:59:12;8.13;;;7.50;;
43700;SDS011;58809;47.984;7.964;2023-09-12T14:02:13;7.95;;;7.35;;
43700;SDS011;58809;47.984;7.964;2023-09-12T14:05:16;8.23;;;7.43;;
43700;SDS011;58809;47.984;7.964;2023-09-12T14:08:18;8.82;;;8.13;;
43700;SDS011;58809;47.984;7.964;2023-09-12T14:11:21;8.10;;;7.30;;
43700;SDS011;58809;47.984;7.964;2023-09-12T14:14:32;8.38;;;7.10;;
43700;SDS011;58809;47.984;7.964;2023-09-12T14:17:34;7.53;;;6.93;;
43700;SDS011;58809;47.984;7.964;2023-09-12T14:20:37;7.25;;;6.75;;
43700;SDS011;58809;47.984;7.964;2023-09-12T14:23:40;7.43;;;6.80;;
43700;SDS011;58809;47.984;7.964;2023-09-12T14:26:42;6.80;;;6.05;;
43700;SDS011;58809;47.984;7.964;2023-09-12T14:29:44;6.85;;;6.10;;
43700;SDS011;58809;47.984;7.964;2023-09-12T14:32:49;8.10;;;6.65;;
43700;SDS011;58809;47.984;7.964;2023-09-12T14:35:51;7.28;;;6.57;;
43700;SDS011;58809;47.984;7.964;2023-09-12T14:38:53;10.45;;;6.72;;
43700;SDS011;58809;47.984;7.964;2023-09-12T14:41:54;6.65;;;5.88;;
43700;SDS011;58809;47.984;7.964;2023-09-12T14:44:57;6.75;;;6.05;;
43700;SDS011;58809;47.984;7.964;2023-09-12T14:47:59;9.63;;;5.93;;
43700;SDS011;58809;47.984;7.964;2023-09-12T14:51:01;7.22;;;6.07;;
43700;SDS011;58809;47.984;7.964;2023-09-12T14:54:03;11.57;;;6.00;;
43700;SDS011;58809;47.984;7.964;2023-09-12T14:57:05;6.55;;;5.95;;
43700;SDS011;58809;47.984;7.964;2023-09-12T15:00:07;6.93;;;5.97;;
43700;SDS011;58809;47.984;7.964;2023-09-12T15:03:08;7.05;;;5.90;;
43700;SDS011;58809;47.984;7.964;2023-09-12T15:06:10;7.57;;;6.05;;
43700;SDS011;58809;47.984;7.964;2023-09-12T15:09:12;6.70;;;6.03;;
43700;SDS011;58809;47.984;7.964;2023-09-12T15:12:14;6.00;;;5.50;;
43700;SDS011;58809;47.984;7.964;2023-09-12T15:15:15;10.95;;;6.05;;
43700;SDS011;58809;47.984;7.964;2023-09-12T15:18:17;7.50;;;6.20;;
43700;SDS011;58809;47.984;7.964;2023-09-12T15:21:19;6.82;;;5.88;;
43700;SDS011;58809;47.984;7.964;2023-09-12T15:24:20;5.80;;;5.30;;
43700;SDS011;58809;47.984;7.964;2023-09-12T15:27:22;6.65;;;6.03;;
43700;SDS011;58809;47.984;7.964;2023-09-12T15:30:24;6.47;;;5.88;;
43700;SDS011;58809;47.984;7.964;2023-09-12T15:33:25;6.32;;;5.65;;
43700;SDS011;58809;47.984;7.964;2023-09-12T15:36:27;7.35;;;6.10;;
43700;SDS011;58809;47.984;7.964;2023-09-12T15:39:29;6.35;;;5.85;;
43700;SDS011;58809;47.984;7.964;2023-09-12T15:42:31;8.98;;;6.15;;
43700;SDS011;58809;47.984;7.964;2023-09-12T15:45:38;6.30;;;5.65;;
43700;SDS011;58809;47.984;7.964;2023-09-12T15:48:51;7.30;;;6.00;;
43700;SDS011;58809;47.984;7.964;2023-09-12T15:51:54;6.65;;;6.05;;
43700;SDS011;58809;47.984;7.964;2023-09-12T15:54:55;6.95;;;6.35;;
43700;SDS011;58809;47.984;7.964;2023-09-12T15:57:57;11.02;;;6.93;;
43700;SDS011;58809;47.984;7.964;2023-09-12T16:00:59;7.63;;;6.88;;
43700;SDS011;58809;47.984;7.964;2023-09-12T16:04:04;9.35;;;7.15;;
43700;SDS011;58809;47.984;7.964;2023-09-12T16:07:06;7.13;;;6.43;;
43700;SDS011;58809;47.984;7.964;2023-09-12T16:10:08;7.60;;;6.90;;
43700;SDS011;58809;47.984;7.964;2023-09-12T16:13:12;8.25;;;7.40;;
43700;SDS011;58809;47.984;7.964;2023-09-12T16:16:13;7.95;;;7.15;;
43700;SDS011;58809;47.984;7.964;2023-09-12T16:19:16;9.25;;;7.20;;
43700;SDS011;58809;47.984;7.964;2023-09-12T16:22:18;9.80;;;6.93;;
43700;SDS011;58809;47.984;7.964;2023-09-12T16:25:20;8.73;;;6.55;;
43700;SDS011;58809;47.984;7.964;2023-09-12T16:28:21;8.52;;;7.30;;
43700;SDS011;58809;47.984;7.964;2023-09-12T16:31:24;8.57;;;6.75;;
43700;SDS011;58809;47.984;7.964;2023-09-12T16:34:26;10.32;;;7.13;;
43700;SDS011;58809;47.984;7.964;2023-09-12T16:37:28;7.47;;;6.60;;
43700;SDS011;58809;47.984;7.964;2023-09-12T16:40:30;8.27;;;7.30;;
43700;SDS011;58809;47.984;7.964;2023-09-12T16:43:33;10.95;;;7.47;;
43700;SDS011;58809;47.984;7.964;2023-09-12T16:46:35;7.65;;;6.90;;
43700;SDS011;58809;47.984;7.964;2023-09-12T16:49:37;8.55;;;7.53;;
43700;SDS011;58809;47.984;7.964;2023-09-12T16:52:40;8.55;;;7.53;;
43700;SDS011;58809;47.984;7.964;2023-09-12T16:55:42;8.18;;;7.03;;
43700;SDS011;58809;47.984;7.964;2023-09-12T16:58:44;8.13;;;7.32;;
43700;SDS011;58809;47.984;7.964;2023-09-12T17:01:45;10.07;;;7.53;;
43700;SDS011;58809;47.984;7.964;2023-09-12T17:04:47;8.50;;;7.28;;
43700;SDS011;58809;47.984;7.964;2023-09-12T17:07:49;8.30;;;7.50;;
43700;SDS011;58809;47.984;7.964;2023-09-12T17:10:50;8.93;;;7.75;;
43700;SDS011;58809;47.984;7.964;2023-09-12T17:13:52;9.13;;;8.23;;
43700;SDS011;58809;47.984;7.964;2023-09-12T17:16:53;8.85;;;7.78;;
43700;SDS011;58809;47.984;7.964;2023-09-12T17:19:55;10.52;;;7.90;;
43700;SDS011;58809;47.984;7.964;2023-09-12T17:22:57;9.02;;;8.05;;
43700;SDS011;58809;47.984;7.964;2023-09-12T17:25:58;13.63;;;8.02;;
43700;SDS011;58809;47.984;7.964;2023-09-12T17:29:00;10.35;;;8.30;;
43700;SDS011;58809;47.984;7.964;2023-09-12T17:32:09;10.48;;;9.13;;
43700;SDS011;58809;47.984;7.964;2023-09-12T17:35:11;14.60;;;12.20;;
43700;SDS011;58809;47.984;7.964;2023-09-12T17:38:13;14.52;;;12.18;;
43700;SDS011;58809;47.984;7.964;2023-09-12T17:41:14;13.85;;;9.32;;
43700;SDS011;58809;47.984;7.964;2023-09-12T17:44:16;17.73;;;11.27;;
43700;SDS011;58809;47.984;7.964;2023-09-12T17:47:18;11.00;;;9.15;;
43700;SDS011;58809;47.984;7.964;2023-09-12T17:50:23;9.98;;;8.90;;
43700;SDS011;58809;47.984;7.964;2023-09-12T17:53:25;9.80;;;8.70;;
43700;SDS011;58809;47.984;7.964;2023-09-12T17:56:28;10.02;;;8.55;;
43700;SDS011;58809;47.984;7.964;2023-09-12T17:59:30;11.05;;;9.90;;
43700;SDS011;58809;47.984;7.964;2023-09-12T18:02:32;11.55;;;10.35;;
43700;SDS011;58809;47.984;7.964;2023-09-12T18:05:34;11.75;;;10.20;;
43700;SDS011;58809;47.984;7.964;2023-09-12T18:08:36;13.63;;;11.60;;
43700;SDS011;58809;47.984;7.964;2023-09-12T18:11:38;12.50;;;11.02;;
43700;SDS011;58809;47.984;7.964;2023-09-12T18:14:40;12.15;;;10.43;;
43700;SDS011;58809;47.984;7.964;2023-09-12T18:17:41;13.48;;;8.77;;
43700;SDS011;58809;47.984;7.964;2023-09-12T18:20:43;12.63;;;10.55;;
43700;SDS011;58809;47.984;7.964;2023-09-12T18:23:45;16.40;;;13.50;;
43700;SDS011;58809;47.984;7.964;2023-09-12T18:26:46;13.05;;;11.65;;
43700;SDS011;58809;47.984;7.964;2023-09-12T18:29:48;15.00;;;10.52;;